VLG5ML LECO-EGLL
Flight info
| Callsign | VLG5ML |
|---|---|
| Flight time | N/A |
| Altitude | 34000 |
| Route | LECO/03 N0438F380 KORA3D KORAV DCT KORUL DCT KOLIG/N0436F370 DCT ROXOG ROXO1H EGLL/09L |
| Aircraft | A320/M-V/N |
Departure
| Time | 2026-04-24 14:22 |
|---|---|
| Airport | A Coruña Airport (LECO) |
Arrival
| Time | N/A |
|---|---|
| Airport | London Heathrow Airport (EGLL) |
| Time | Latitude | Longitude | Altitude | Speed | Heading |
|---|---|---|---|---|---|
| 2026-04-24 14:07 | 43.30165 | -8.38081 | 340 ft | 0 kts | 327° |
| 2026-04-24 14:13 | 43.30163 | -8.38080 | 335 ft | 2 kts | 327° |
| 2026-04-24 14:13 | 43.30144 | -8.38058 | 335 ft | 4 kts | 300° |
| 2026-04-24 14:14 | 43.30139 | -8.38030 | 335 ft | 4 kts | 232° |
| 2026-04-24 14:14 | 43.30144 | -8.38022 | 336 ft | 0 kts | 211° |
| 2026-04-24 14:17 | 43.30144 | -8.38023 | 336 ft | 1 kts | 211° |
| 2026-04-24 14:18 | 43.30134 | -8.38031 | 335 ft | 1 kts | 211° |
| 2026-04-24 14:18 | 43.30113 | -8.38048 | 338 ft | 7 kts | 211° |
| 2026-04-24 14:18 | 43.30046 | -8.38078 | 340 ft | 10 kts | 181° |
| 2026-04-24 14:18 | 43.29979 | -8.38054 | 341 ft | 11 kts | 151° |
| 2026-04-24 14:19 | 43.29923 | -8.37977 | 344 ft | 11 kts | 156° |
| 2026-04-24 14:19 | 43.29848 | -8.38013 | 346 ft | 13 kts | 211° |
| 2026-04-24 14:19 | 43.29756 | -8.38089 | 338 ft | 17 kts | 211° |
| 2026-04-24 14:19 | 43.29637 | -8.38187 | 336 ft | 23 kts | 211° |
| 2026-04-24 14:20 | 43.29495 | -8.38296 | 335 ft | 24 kts | 210° |
| 2026-04-24 14:20 | 43.29366 | -8.38405 | 335 ft | 19 kts | 213° |
| 2026-04-24 14:20 | 43.29267 | -8.38502 | 339 ft | 15 kts | 235° |
| 2026-04-24 14:20 | 43.29236 | -8.38530 | 339 ft | 4 kts | 99° |
| 2026-04-24 14:21 | 43.29262 | -8.38486 | 337 ft | 8 kts | 29° |
| 2026-04-24 14:21 | 43.29300 | -8.38460 | 338 ft | 0 kts | 28° |
| 2026-04-24 14:21 | 43.29373 | -8.38403 | 336 ft | 41 kts | 30° |
| 2026-04-24 14:21 | 43.29819 | -8.38039 | 349 ft | 105 kts | 31° |
| 2026-04-24 14:22 | 43.30588 | -8.37414 | 380 ft | 147 kts | 29° |
| 2026-04-24 14:22 | 43.31447 | -8.36689 | 1015 ft | 144 kts | 36° |
| 2026-04-24 14:22 | 43.32745 | -8.34446 | 2063 ft | 171 kts | 65° |